createdAt,value
2023-01-27T00:01:43.873Z,3.10
2023-01-27T00:04:16.953Z,3.20
2023-01-27T00:06:43.931Z,3.20
2023-01-27T00:09:16.972Z,3.10
2023-01-27T00:11:43.933Z,3.10
2023-01-27T00:14:16.945Z,3.00
2023-01-27T00:16:49.986Z,3.10
2023-01-27T00:19:17.401Z,3.10
2023-01-27T00:21:44.439Z,3.10
2023-01-27T00:24:20.016Z,3.00
2023-01-27T00:26:47.143Z,3.00
2023-01-27T00:29:20.980Z,3.10
2023-01-27T00:31:48.129Z,3.10
2023-01-27T00:34:15.148Z,3.10
2023-01-27T00:36:48.979Z,3.10
2023-01-27T00:39:16.077Z,3.10
2023-01-27T00:41:43.092Z,3.20
2023-01-27T00:44:17.033Z,3.20
2023-01-27T00:46:44.135Z,3.20
2023-01-27T00:49:18.105Z,3.20
2023-01-27T00:51:45.635Z,3.20
2023-01-27T00:54:18.934Z,3.30
2023-01-27T00:56:52.031Z,3.40
2023-01-27T00:59:19.028Z,3.30
2023-01-27T01:01:46.136Z,3.30
2023-01-27T01:04:20.007Z,3.30
2023-01-27T01:06:47.030Z,3.50
2023-01-27T01:09:27.091Z,3.70
2023-01-27T01:12:00.999Z,3.60
2023-01-27T01:14:28.051Z,3.60
2023-01-27T01:17:02.018Z,3.50
2023-01-27T01:19:31.073Z,3.50
2023-01-27T01:22:05.117Z,3.50
2023-01-27T01:24:32.276Z,3.50
2023-01-27T01:27:06.176Z,3.60
2023-01-27T01:29:33.781Z,3.70
2023-01-27T01:32:06.936Z,3.60
2023-01-27T01:34:33.945Z,3.60
2023-01-27T01:37:07.068Z,3.50
2023-01-27T01:39:34.040Z,3.50
2023-01-27T01:42:08.124Z,3.50
2023-01-27T01:44:35.148Z,3.50
2023-01-27T01:47:08.999Z,3.40
2023-01-27T01:49:39.162Z,3.50
2023-01-27T01:52:17.036Z,3.60
2023-01-27T01:54:54.109Z,3.50
2023-01-27T01:57:31.980Z,3.60
2023-01-27T02:00:06.200Z,3.60
2023-01-27T02:02:40.123Z,3.50
2023-01-27T02:05:11.590Z,3.50
2023-01-27T02:08:22.993Z,3.50
2023-01-27T02:10:49.984Z,3.60
2023-01-27T02:13:24.054Z,3.60
2023-01-27T02:15:51.758Z,3.60
2023-01-27T02:18:25.046Z,3.70
2023-01-27T02:20:53.245Z,3.80
2023-01-27T02:23:38.009Z,3.80
2023-01-27T02:26:43.027Z,3.80
2023-01-27T02:29:21.094Z,4.10
2023-01-27T02:31:48.155Z,4.20
2023-01-27T02:34:25.084Z,4.20
2023-01-27T02:36:55.416Z,4.10
2023-01-27T02:39:32.046Z,4.20
2023-01-27T02:41:59.092Z,4.40
2023-01-27T02:44:33.103Z,4.40
2023-01-27T02:47:07.041Z,4.30
2023-01-27T02:49:34.004Z,4.30
2023-01-27T02:52:01.087Z,4.40
2023-01-27T02:54:35.065Z,4.30
2023-01-27T02:57:02.158Z,4.40
2023-01-27T02:59:36.013Z,4.40
2023-01-27T03:02:10.095Z,4.40
2023-01-27T03:04:37.187Z,4.50
2023-01-27T03:07:11.042Z,4.50
2023-01-27T03:09:38.039Z,4.50
2023-01-27T03:12:12.142Z,4.40
2023-01-27T03:14:39.153Z,4.50
2023-01-27T03:17:13.036Z,4.50
2023-01-27T03:19:40.029Z,4.40
2023-01-27T03:22:14.058Z,4.40
2023-01-27T03:24:48.076Z,4.40
2023-01-27T03:27:22.081Z,4.40
2023-01-27T03:29:56.092Z,4.40
2023-01-27T03:32:27.661Z,4.40
2023-01-27T03:35:02.028Z,4.50
2023-01-27T03:37:29.238Z,4.60
2023-01-27T03:39:56.413Z,4.50
2023-01-27T03:42:30.028Z,4.30
2023-01-27T03:44:57.107Z,4.30
2023-01-27T03:47:31.120Z,4.40
2023-01-27T03:49:58.150Z,4.40
2023-01-27T03:52:32.011Z,4.30
2023-01-27T03:54:59.025Z,4.30
2023-01-27T03:57:26.230Z,4.20
2023-01-27T04:00:00.058Z,4.30
2023-01-27T04:02:27.083Z,4.40
2023-01-27T04:05:01.060Z,4.30
2023-01-27T04:07:28.007Z,4.20
2023-01-27T04:10:01.030Z,4.10
2023-01-27T04:12:34.062Z,4.40
2023-01-27T04:15:01.131Z,4.30
2023-01-27T04:17:35.105Z,4.50
2023-01-27T04:20:02.931Z,4.50
2023-01-27T04:22:36.140Z,4.60
2023-01-27T04:25:03.186Z,4.70
2023-01-27T04:27:37.120Z,4.60
2023-01-27T04:30:04.733Z,4.70
2023-01-27T04:32:38.105Z,4.80
2023-01-27T04:35:05.510Z,4.40
2023-01-27T04:37:39.232Z,4.20
2023-01-27T04:40:14.077Z,4.10
2023-01-27T04:42:48.058Z,4.10
2023-01-27T04:45:22.043Z,4.20
2023-01-27T04:47:49.055Z,4.10
2023-01-27T04:50:16.508Z,4.00
2023-01-27T04:52:50.116Z,4.00
2023-01-27T04:55:17.183Z,4.10
2023-01-27T04:57:51.100Z,4.30
2023-01-27T05:00:18.780Z,4.40
2023-01-27T05:02:52.124Z,4.40
2023-01-27T05:05:19.162Z,4.30
2023-01-27T05:07:53.125Z,4.20
2023-01-27T05:10:20.224Z,4.10
2023-01-27T05:12:54.047Z,4.10
2023-01-27T05:15:27.227Z,4.20
2023-01-27T05:17:54.693Z,4.10
2023-01-27T05:20:28.176Z,4.00
2023-01-27T05:23:02.163Z,4.00
2023-01-27T05:25:29.191Z,4.00
2023-01-27T05:28:03.043Z,4.10
2023-01-27T05:30:36.071Z,4.10
2023-01-27T05:33:03.788Z,4.10
2023-01-27T05:35:33.506Z,4.10
2023-01-27T05:38:07.104Z,4.00
2023-01-27T05:40:41.123Z,4.00
2023-01-27T05:43:08.071Z,3.90
2023-01-27T05:45:42.079Z,4.00
2023-01-27T05:48:16.103Z,4.00
2023-01-27T05:50:43.098Z,4.00
2023-01-27T05:53:17.121Z,3.90
2023-01-27T05:55:51.100Z,3.90
2023-01-27T05:58:25.128Z,3.80
2023-01-27T06:00:52.715Z,3.80
2023-01-27T06:03:19.761Z,3.80
2023-01-27T06:06:04.114Z,3.80
2023-01-27T06:08:31.348Z,3.80
2023-01-27T06:11:05.095Z,3.80
2023-01-27T06:13:32.338Z,3.90
2023-01-27T06:16:06.117Z,3.80
2023-01-27T06:18:33.171Z,3.80
2023-01-27T06:21:15.084Z,3.80
2023-01-27T06:23:48.084Z,3.80
2023-01-27T06:26:17.028Z,3.80
2023-01-27T06:28:52.269Z,3.80
2023-01-27T06:31:21.195Z,3.70
2023-01-27T06:33:48.256Z,3.70
2023-01-27T06:36:24.087Z,3.60
2023-01-27T06:38:51.336Z,3.60
2023-01-27T06:41:25.117Z,3.60
2023-01-27T06:43:52.142Z,3.50
2023-01-27T06:46:26.099Z,3.70
2023-01-27T06:48:59.176Z,3.70
2023-01-27T06:51:26.389Z,3.70
2023-01-27T06:53:53.537Z,3.80
2023-01-27T06:56:27.101Z,3.80
2023-01-27T06:58:54.091Z,3.80
2023-01-27T07:01:27.124Z,3.80
2023-01-27T07:03:54.239Z,3.80
2023-01-27T07:06:28.135Z,3.90
2023-01-27T07:08:59.969Z,3.90
2023-01-27T07:11:36.212Z,3.90
2023-01-27T07:14:06.271Z,4.00
2023-01-27T07:16:33.229Z,4.00
2023-01-27T07:19:07.165Z,4.00
2023-01-27T07:21:41.123Z,4.00
2023-01-27T07:24:15.177Z,4.00
2023-01-27T07:26:49.349Z,4.20
2023-01-27T07:29:16.404Z,4.40
2023-01-27T07:31:50.229Z,4.50
2023-01-27T07:34:17.293Z,4.50
2023-01-27T07:36:51.122Z,4.40
2023-01-27T07:39:25.222Z,4.50
2023-01-27T07:41:52.462Z,4.60
2023-01-27T07:44:26.226Z,4.60
2023-01-27T07:46:53.951Z,4.90
2023-01-27T07:49:27.663Z,4.90
2023-01-27T07:51:54.642Z,4.90
2023-01-27T07:54:28.193Z,4.90
2023-01-27T07:56:55.157Z,4.90
2023-01-27T07:59:28.207Z,4.90
2023-01-27T08:01:55.274Z,4.80
2023-01-27T08:04:30.387Z,4.80
2023-01-27T08:06:58.595Z,4.70
2023-01-27T08:09:32.166Z,4.70
2023-01-27T08:12:05.232Z,4.80
2023-01-27T08:14:32.289Z,4.80
2023-01-27T08:17:06.180Z,4.80
2023-01-27T08:19:40.165Z,4.80
2023-01-27T08:22:07.238Z,4.80
2023-01-27T08:24:41.185Z,4.80
2023-01-27T08:27:08.406Z,4.70
2023-01-27T08:29:42.155Z,4.70
2023-01-27T08:32:09.360Z,4.80
2023-01-27T08:34:44.171Z,4.80
2023-01-27T08:37:11.281Z,5.10
2023-01-27T08:39:45.138Z,5.10
2023-01-27T08:42:12.722Z,5.00
2023-01-27T08:44:46.235Z,4.90
2023-01-27T08:47:13.334Z,4.90
2023-01-27T08:49:40.343Z,4.90
2023-01-27T08:52:14.160Z,4.90
2023-01-27T08:54:48.152Z,4.90
2023-01-27T08:57:15.141Z,4.90
2023-01-27T08:59:49.169Z,4.90
2023-01-27T09:02:16.250Z,4.90
2023-01-27T09:04:50.355Z,4.90
2023-01-27T09:07:18.335Z,5.00
2023-01-27T09:10:07.698Z,5.00
2023-01-27T09:12:41.022Z,5.10
2023-01-27T09:15:15.250Z,5.10
2023-01-27T09:17:42.403Z,5.20
2023-01-27T09:20:17.384Z,5.20
2023-01-27T09:22:44.834Z,5.50
2023-01-27T09:25:16.660Z,5.50
2023-01-27T09:27:51.272Z,5.40
2023-01-27T09:30:18.465Z,5.40
2023-01-27T09:32:45.477Z,5.40
2023-01-27T09:35:19.230Z,5.50
2023-01-27T09:37:54.400Z,5.50
2023-01-27T09:40:39.182Z,5.60
2023-01-27T09:43:43.546Z,5.70
2023-01-27T09:46:25.315Z,5.80
2023-01-27T09:49:37.235Z,5.80
2023-01-27T09:52:52.262Z,5.80
2023-01-27T09:55:28.885Z,5.90
2023-01-27T09:58:27.230Z,5.90
2023-01-27T10:01:22.178Z,5.90
2023-01-27T10:04:13.418Z,6.00
2023-01-27T10:07:05.684Z,6.00
2023-01-27T10:10:13.450Z,6.00
2023-01-27T10:13:25.201Z,6.00
2023-01-27T10:16:45.538Z,6.20
2023-01-27T10:19:54.238Z,6.20
2023-01-27T10:22:42.394Z,6.20
2023-01-27T10:25:30.267Z,6.40
2023-01-27T10:27:59.200Z,6.50
2023-01-27T10:30:35.234Z,6.50
2023-01-27T10:33:18.536Z,6.60
2023-01-27T10:36:00.222Z,6.70
2023-01-27T10:38:59.368Z,6.60
2023-01-27T10:42:06.192Z,6.70
2023-01-27T10:45:00.667Z,6.70
2023-01-27T10:48:27.205Z,6.70
2023-01-27T10:51:41.174Z,6.70
2023-01-27T10:54:32.168Z,6.80
2023-01-27T10:57:21.169Z,6.90
2023-01-27T11:00:23.003Z,6.80
2023-01-27T11:02:51.235Z,6.80
2023-01-27T11:05:29.085Z,6.90
2023-01-27T11:08:24.339Z,6.80
2023-01-27T11:10:56.703Z,6.80
2023-01-27T11:13:30.258Z,6.90
2023-01-27T11:15:57.992Z,7.00
2023-01-27T11:18:27.870Z,7.00
2023-01-27T11:21:06.337Z,6.90
2023-01-27T11:23:45.183Z,7.00
2023-01-27T11:26:50.265Z,7.00
2023-01-27T11:29:38.289Z,7.00
2023-01-27T11:33:01.227Z,7.00
2023-01-27T11:35:35.264Z,6.90
2023-01-27T11:38:15.250Z,7.00
2023-01-27T11:40:49.280Z,7.10
2023-01-27T11:43:25.008Z,7.20
2023-01-27T11:46:03.300Z,7.20
2023-01-27T11:48:57.292Z,7.20
2023-01-27T11:51:33.267Z,7.30
2023-01-27T11:54:23.907Z,7.30
2023-01-27T11:56:57.251Z,7.30
2023-01-27T11:59:27.632Z,7.40
2023-01-27T12:02:09.247Z,7.40
2023-01-27T12:04:45.497Z,7.60
2023-01-27T12:07:34.258Z,7.60
2023-01-27T12:10:01.527Z,7.70
2023-01-27T12:12:35.276Z,7.70
2023-01-27T12:15:03.207Z,7.80
2023-01-27T12:17:47.248Z,7.80
2023-01-27T12:20:41.326Z,7.90
2023-01-27T12:23:31.428Z,8.10
2023-01-27T12:26:12.262Z,8.10
2023-01-27T12:28:58.269Z,8.10
2023-01-27T12:31:28.866Z,8.10
2023-01-27T12:34:19.236Z,8.10
2023-01-27T12:36:46.292Z,8.10
2023-01-27T12:39:56.323Z,8.20
2023-01-27T12:42:50.627Z,8.10
2023-01-27T12:45:36.308Z,8.10
2023-01-27T12:48:18.738Z,8.10
2023-01-27T12:50:58.320Z,8.20
2023-01-27T12:53:33.395Z,8.20
2023-01-27T12:56:09.735Z,8.20
2023-01-27T12:58:47.389Z,8.30
2023-01-27T13:01:20.473Z,8.40
2023-01-27T13:04:05.344Z,8.50
2023-01-27T13:06:39.130Z,8.50
2023-01-27T13:09:12.331Z,8.60
2023-01-27T13:11:39.923Z,8.70
2023-01-27T13:14:23.352Z,8.60
2023-01-27T13:16:54.879Z,8.60
2023-01-27T13:19:51.278Z,8.50
2023-01-27T13:22:19.194Z,8.40
2023-01-27T13:24:53.349Z,8.30
2023-01-27T13:27:21.305Z,8.30
2023-01-27T13:30:12.637Z,8.20
2023-01-27T13:32:39.812Z,8.30
2023-01-27T13:35:44.341Z,8.30
2023-01-27T13:38:36.835Z,8.20
2023-01-27T13:41:14.321Z,8.30
2023-01-27T13:43:41.434Z,8.20
2023-01-27T13:46:27.401Z,8.20
2023-01-27T13:49:38.292Z,8.20
2023-01-27T13:52:12.272Z,8.30
2023-01-27T13:54:39.615Z,8.40
2023-01-27T13:57:57.318Z,8.50
2023-01-27T14:00:43.461Z,8.50
2023-01-27T14:03:43.297Z,8.30
2023-01-27T14:06:46.347Z,8.20
2023-01-27T14:09:39.813Z,8.10
2023-01-27T14:12:49.278Z,8.10
2023-01-27T14:15:31.093Z,8.00
2023-01-27T14:18:21.353Z,8.10
2023-01-27T14:21:09.319Z,8.10
2023-01-27T14:24:22.598Z,8.00
2023-01-27T14:26:56.388Z,8.00
2023-01-27T14:29:46.698Z,8.00
2023-01-27T14:32:38.330Z,7.90
2023-01-27T14:35:26.997Z,7.90
2023-01-27T14:38:24.320Z,7.90
2023-01-27T14:41:05.995Z,7.90
2023-01-27T14:43:52.699Z,7.90
2023-01-27T14:46:50.605Z,7.90
2023-01-27T14:49:42.359Z,7.90
2023-01-27T14:52:37.213Z,7.80
2023-01-27T14:55:19.366Z,7.70
2023-01-27T14:58:16.436Z,7.80
2023-01-27T15:01:14.354Z,7.70
2023-01-27T15:04:19.250Z,7.70
2023-01-27T15:07:12.345Z,7.70
2023-01-27T15:10:08.356Z,7.70
2023-01-27T15:13:00.351Z,7.80
2023-01-27T15:15:57.765Z,7.80
2023-01-27T15:19:08.318Z,7.70
2023-01-27T15:21:44.595Z,7.80
2023-01-27T15:24:50.313Z,7.80
2023-01-27T15:27:17.328Z,7.70
2023-01-27T15:29:44.324Z,7.60
2023-01-27T15:32:24.389Z,7.60
2023-01-27T15:34:53.860Z,7.60
2023-01-27T15:37:29.975Z,7.50
2023-01-27T15:40:16.936Z,7.50
2023-01-27T15:42:58.052Z,7.50
2023-01-27T15:45:36.356Z,7.40
2023-01-27T15:48:21.436Z,7.20
2023-01-27T15:50:59.703Z,7.10
2023-01-27T15:53:45.376Z,7.10
2023-01-27T15:56:12.603Z,7.00
2023-01-27T15:59:03.449Z,7.00
2023-01-27T16:01:39.343Z,7.00
2023-01-27T16:04:21.505Z,6.90
2023-01-27T16:06:56.798Z,6.80
2023-01-27T16:09:48.536Z,6.70
2023-01-27T16:12:24.686Z,6.70
2023-01-27T16:15:41.930Z,6.60
2023-01-27T16:18:08.941Z,6.60
2023-01-27T16:20:54.521Z,6.50
2023-01-27T16:23:58.821Z,6.40
2023-01-27T16:26:43.452Z,6.40
2023-01-27T16:29:23.608Z,6.40
2023-01-27T16:32:00.317Z,6.40
2023-01-27T16:34:42.236Z,6.30
2023-01-27T16:37:24.485Z,6.30
2023-01-27T16:40:23.220Z,6.30
2023-01-27T16:42:59.444Z,6.10
2023-01-27T16:45:29.617Z,6.10
2023-01-27T16:48:11.434Z,6.00
2023-01-27T16:50:41.134Z,6.00
2023-01-27T16:53:27.686Z,5.90
2023-01-27T16:56:03.957Z,5.80
2023-01-27T16:58:46.614Z,5.80
2023-01-27T17:01:29.268Z,5.60
2023-01-27T17:04:19.042Z,5.60
2023-01-27T17:06:48.206Z,5.40
2023-01-27T17:09:38.468Z,5.10
2023-01-27T17:12:05.862Z,5.10
2023-01-27T17:14:37.106Z,5.10
2023-01-27T17:17:12.503Z,5.20
2023-01-27T17:19:46.400Z,5.20
2023-01-27T17:22:31.324Z,5.10
2023-01-27T17:25:10.452Z,5.10
2023-01-27T17:27:39.441Z,5.00
2023-01-27T17:30:29.465Z,4.90
2023-01-27T17:32:58.511Z,4.90
2023-01-27T17:35:51.446Z,4.80
2023-01-27T17:38:45.521Z,4.70
2023-01-27T17:41:37.419Z,4.60
2023-01-27T17:44:13.459Z,4.40
2023-01-27T17:46:49.464Z,4.20
2023-01-27T17:49:17.725Z,4.00
2023-01-27T17:51:56.454Z,3.80
2023-01-27T17:54:34.295Z,3.70
2023-01-27T17:57:13.395Z,3.60
2023-01-27T17:59:46.894Z,3.40
2023-01-27T18:02:49.542Z,3.40
2023-01-27T18:05:22.589Z,3.30
2023-01-27T18:07:56.480Z,3.30
2023-01-27T18:10:42.385Z,3.20
2023-01-27T18:13:18.292Z,3.10
2023-01-27T18:16:24.541Z,3.00
2023-01-27T18:18:51.638Z,3.00
2023-01-27T18:21:32.455Z,2.80
2023-01-27T18:23:59.602Z,2.70
2023-01-27T18:26:30.225Z,2.80
2023-01-27T18:29:07.439Z,2.80
2023-01-27T18:31:45.156Z,2.80
2023-01-27T18:34:39.470Z,2.80
2023-01-27T18:37:31.512Z,2.80
2023-01-27T18:40:06.499Z,2.80
2023-01-27T18:42:40.450Z,2.90
2023-01-27T18:45:12.292Z,3.00
2023-01-27T18:47:46.454Z,3.10
2023-01-27T18:50:20.250Z,3.00
2023-01-27T18:52:54.458Z,3.00
2023-01-27T18:55:29.426Z,3.10
2023-01-27T18:58:04.464Z,3.20
2023-01-27T19:00:48.556Z,3.20
2023-01-27T19:03:24.546Z,3.20
2023-01-27T19:05:51.592Z,3.20
2023-01-27T19:08:29.469Z,3.20
2023-01-27T19:10:56.471Z,3.10
2023-01-27T19:13:30.528Z,3.00
2023-01-27T19:15:57.675Z,2.90
2023-01-27T19:18:39.440Z,2.90
2023-01-27T19:21:06.724Z,3.00
2023-01-27T19:23:40.448Z,3.10
2023-01-27T19:26:14.480Z,3.10
2023-01-27T19:28:47.450Z,3.00
2023-01-27T19:31:14.575Z,2.80
2023-01-27T19:33:48.442Z,2.80
2023-01-27T19:36:38.436Z,2.70
2023-01-27T19:39:08.308Z,2.70
2023-01-27T19:41:41.561Z,2.60
2023-01-27T19:44:08.610Z,2.40
2023-01-27T19:46:42.464Z,2.30
2023-01-27T19:49:23.463Z,2.30
2023-01-27T19:51:50.433Z,2.30
2023-01-27T19:54:23.443Z,2.30
2023-01-27T19:56:50.353Z,2.50
2023-01-27T19:59:23.453Z,2.70
2023-01-27T20:01:57.513Z,2.90
2023-01-27T20:04:24.581Z,2.80
2023-01-27T20:06:51.514Z,2.70
2023-01-27T20:09:24.458Z,2.70
2023-01-27T20:11:51.509Z,2.60
2023-01-27T20:14:25.441Z,2.60
2023-01-27T20:16:52.517Z,2.50
2023-01-27T20:19:26.514Z,2.30
2023-01-27T20:22:00.508Z,2.20
2023-01-27T20:24:27.720Z,2.20
2023-01-27T20:27:01.480Z,2.30
2023-01-27T20:29:34.518Z,2.40
2023-01-27T20:32:08.464Z,2.60
2023-01-27T20:34:35.461Z,2.60
2023-01-27T20:37:02.495Z,2.60
2023-01-27T20:39:35.532Z,2.70
2023-01-27T20:42:02.417Z,2.70
2023-01-27T20:44:35.556Z,2.70
2023-01-27T20:47:02.537Z,2.70
2023-01-27T20:49:35.466Z,2.60
2023-01-27T20:52:08.504Z,2.60
2023-01-27T20:54:35.468Z,2.60
2023-01-27T20:57:08.732Z,2.70
2023-01-27T20:59:35.716Z,2.80
2023-01-27T21:02:09.520Z,2.80
2023-01-27T21:04:36.584Z,2.80
2023-01-27T21:07:10.542Z,2.80
2023-01-27T21:09:37.503Z,2.70
2023-01-27T21:12:04.588Z,2.70
2023-01-27T21:14:40.031Z,2.70
2023-01-27T21:17:07.128Z,2.70
2023-01-27T21:19:40.599Z,2.60
2023-01-27T21:22:07.522Z,2.60
2023-01-27T21:24:34.521Z,2.70
2023-01-27T21:27:08.459Z,2.70
2023-01-27T21:29:35.372Z,2.70
2023-01-27T21:32:08.469Z,2.80
2023-01-27T21:34:35.377Z,2.90
2023-01-27T21:37:08.575Z,2.80
2023-01-27T21:39:35.561Z,2.90
2023-01-27T21:42:09.557Z,3.00
2023-01-27T21:44:36.636Z,3.00
2023-01-27T21:47:10.671Z,3.00
2023-01-27T21:49:39.568Z,3.00
2023-01-27T21:52:13.547Z,2.90
2023-01-27T21:54:40.565Z,2.90
2023-01-27T21:57:07.479Z,3.00
2023-01-27T21:59:40.541Z,3.00
2023-01-27T22:02:18.503Z,3.00
2023-01-27T22:04:46.068Z,3.00
2023-01-27T22:07:22.485Z,3.20
2023-01-27T22:09:49.402Z,3.40
2023-01-27T22:12:16.741Z,3.30
2023-01-27T22:14:50.615Z,3.40
2023-01-27T22:17:19.873Z,3.40
2023-01-27T22:19:53.551Z,3.40
2023-01-27T22:22:20.504Z,3.40
2023-01-27T22:24:47.492Z,3.30
2023-01-27T22:27:20.513Z,3.20
2023-01-27T22:29:47.485Z,3.30
2023-01-27T22:32:20.573Z,3.30
2023-01-27T22:34:53.551Z,3.30
2023-01-27T22:37:20.424Z,3.30
2023-01-27T22:39:53.489Z,3.20
2023-01-27T22:42:20.356Z,3.30
2023-01-27T22:44:47.272Z,3.30
2023-01-27T22:47:20.541Z,3.40
2023-01-27T22:49:53.528Z,3.50
2023-01-27T22:52:26.546Z,3.50
2023-01-27T22:54:53.469Z,3.40
2023-01-27T22:57:26.508Z,3.30
2023-01-27T22:59:53.438Z,3.40
2023-01-27T23:02:26.678Z,3.60
2023-01-27T23:04:54.279Z,3.70
2023-01-27T23:07:27.517Z,3.70
2023-01-27T23:09:54.373Z,3.80
2023-01-27T23:12:27.569Z,3.80
2023-01-27T23:14:54.586Z,3.90
2023-01-27T23:17:21.588Z,4.00
2023-01-27T23:19:55.553Z,4.00
2023-01-27T23:22:22.509Z,3.80
2023-01-27T23:24:49.682Z,3.80
2023-01-27T23:27:23.556Z,3.70
2023-01-27T23:29:57.604Z,3.90
2023-01-27T23:32:24.598Z,4.00
2023-01-27T23:34:51.612Z,4.00
2023-01-27T23:37:25.567Z,3.90
2023-01-27T23:39:59.402Z,3.90
2023-01-27T23:42:32.552Z,3.90
2023-01-27T23:44:59.527Z,3.90
2023-01-27T23:47:33.601Z,3.90
2023-01-27T23:50:00.784Z,3.90
2023-01-27T23:52:34.577Z,4.10
2023-01-27T23:55:01.741Z,4.20
2023-01-27T23:57:35.578Z,4.10
